Time;durP1;ratioP1;P1;durP2;ratioP2;P2;SDS_P1;SDS_P2;PMS_P1;PMS_P2;Temp;Humidity;BMP_temperature;BMP_pressure;BME280_temperature;BME280_humidity;BME280_pressure;Samples;Min_cycle;Max_cycle;Signal;HPM_P1;HPM_P2
2023/03/18 00:01:13;;;;;;;0.55;0.55;;;11.90;99.90;;;;;;5071007;28;20052;-75
2023/03/18 00:03:39;;;;;;;0.57;0.57;;;11.90;99.90;;;;;;5072143;28;20078;-75
2023/03/18 00:06:14;;;;;;;0.60;0.60;;;11.90;99.90;;;;;;5070850;28;20051;-75
2023/03/18 00:08:42;;;;;;;0.50;0.50;;;11.90;99.90;;;;;;5054757;28;20515;-75
2023/03/18 00:11:10;;;;;;;0.50;0.50;;;12.00;99.90;;;;;;5069309;28;20044;-75
2023/03/18 00:13:36;;;;;;;0.50;0.50;;;12.00;99.90;;;;;;5050954;28;20044;-75
2023/03/18 00:16:03;;;;;;;0.50;0.50;;;12.00;99.90;;;;;;5055890;28;20056;-75
2023/03/18 00:18:31;;;;;;;0.50;0.50;;;12.00;99.90;;;;;;5066304;28;20087;-75
2023/03/18 00:20:59;;;;;;;0.50;0.50;;;12.00;99.90;;;;;;5051907;28;20577;-75
2023/03/18 00:23:26;;;;;;;0.50;0.50;;;12.00;99.90;;;;;;5056006;28;20048;-75
2023/03/18 00:25:55;;;;;;;0.50;0.50;;;12.00;99.90;;;;;;5068703;28;20047;-75
2023/03/18 00:28:21;;;;;;;0.60;0.60;;;12.00;99.90;;;;;;5053409;28;20040;-75
2023/03/18 00:30:48;;;;;;;0.50;0.50;;;12.00;99.90;;;;;;5052891;28;20052;-75
2023/03/18 00:33:15;;;;;;;0.50;0.50;;;11.90;99.90;;;;;;5067416;28;20117;-75
2023/03/18 00:35:41;;;;;;;0.52;0.52;;;11.90;99.90;;;;;;5074826;28;20043;-74
2023/03/18 00:38:08;;;;;;;0.50;0.50;;;11.80;99.90;;;;;;5053785;28;20481;-75
2023/03/18 00:40:52;;;;;;;0.60;0.60;;;11.80;99.90;;;;;;5047855;28;20191;-75
2023/03/18 00:43:28;;;;;;;0.60;0.60;;;11.80;99.90;;;;;;5067735;28;20177;-75
2023/03/18 00:45:55;;;;;;;0.50;0.50;;;11.80;99.90;;;;;;5050955;28;21799;-74
2023/03/18 00:48:22;;;;;;;0.50;0.50;;;11.70;99.90;;;;;;5064776;28;20580;-75
2023/03/18 00:50:49;;;;;;;0.50;0.50;;;11.70;99.90;;;;;;5060055;28;20056;-74
2023/03/18 00:53:15;;;;;;;0.60;0.60;;;11.60;99.90;;;;;;5043728;28;20537;-75
2023/03/18 00:55:41;;;;;;;0.60;0.60;;;11.60;99.90;;;;;;5062645;28;20764;-74
2023/03/18 00:58:08;;;;;;;0.60;0.60;;;11.60;99.90;;;;;;5044581;28;20054;-75
2023/03/18 01:00:40;;;;;;;0.50;0.50;;;11.50;99.90;;;;;;5048888;28;20090;-74
2023/03/18 01:03:07;;;;;;;0.50;0.50;;;11.50;99.90;;;;;;5063504;28;20045;-75
2023/03/18 01:05:34;;;;;;;0.60;0.60;;;11.40;99.90;;;;;;5060267;28;20097;-75
2023/03/18 01:08:01;;;;;;;0.57;0.57;;;11.40;99.90;;;;;;5051011;28;20261;-75
2023/03/18 01:10:29;;;;;;;0.60;0.60;;;11.30;99.90;;;;;;5053073;28;20112;-75
2023/03/18 01:12:55;;;;;;;0.55;0.55;;;11.30;99.90;;;;;;5048196;28;20048;-75
2023/03/18 01:15:22;;;;;;;0.60;0.60;;;11.30;99.90;;;;;;5050037;28;20795;-74
2023/03/18 01:17:48;;;;;;;0.60;0.60;;;11.30;99.90;;;;;;5047774;28;20226;-75
2023/03/18 01:20:16;;;;;;;0.60;0.60;;;11.30;99.90;;;;;;5051679;28;20143;-75
2023/03/18 01:22:43;;;;;;;0.50;0.50;;;11.30;99.90;;;;;;5049473;28;20110;-75
2023/03/18 01:25:11;;;;;;;0.60;0.60;;;11.40;99.90;;;;;;5059854;28;20044;-75
2023/03/18 01:27:37;;;;;;;0.60;0.60;;;11.30;99.90;;;;;;5062059;28;20172;-75
2023/03/18 01:30:05;;;;;;;0.60;0.60;;;11.30;99.90;;;;;;5056776;28;20097;-75
2023/03/18 01:32:31;;;;;;;0.60;0.60;;;11.20;99.90;;;;;;5060873;28;21017;-75
2023/03/18 01:34:58;;;;;;;0.60;0.60;;;11.20;99.90;;;;;;5062015;28;20040;-75
2023/03/18 01:37:24;;;;;;;0.50;0.50;;;11.10;99.90;;;;;;5059813;28;20082;-75
2023/03/18 01:39:50;;;;;;;0.52;0.52;;;11.10;99.90;;;;;;5061800;28;20087;-75
2023/03/18 01:42:17;;;;;;;0.60;0.60;;;11.10;99.90;;;;;;5057357;28;20063;-75
2023/03/18 01:44:45;;;;;;;0.60;0.60;;;11.00;99.90;;;;;;5057435;28;20181;-75
2023/03/18 01:47:11;;;;;;;0.60;0.60;;;10.90;99.90;;;;;;5060242;28;20036;-75
2023/03/18 01:49:49;;;;;;;0.52;0.52;;;10.90;99.90;;;;;;5054530;28;20033;-75
2023/03/18 01:52:29;;;;;;;0.50;0.50;;;10.80;99.90;;;;;;5026687;28;20047;-75
2023/03/18 01:54:59;;;;;;;0.50;0.50;;;10.70;99.90;;;;;;5041492;28;20050;-75
2023/03/18 01:57:26;;;;;;;0.60;0.60;;;10.70;99.90;;;;;;5034048;28;20052;-75
2023/03/18 01:59:54;;;;;;;0.60;0.60;;;10.60;99.90;;;;;;5034014;28;20517;-75
2023/03/18 02:02:20;;;;;;;0.60;0.60;;;10.60;99.90;;;;;;5053284;28;20040;-75
2023/03/18 02:04:51;;;;;;;0.60;0.60;;;10.50;99.90;;;;;;5050039;28;20036;-75
2023/03/18 02:07:29;;;;;;;0.60;0.60;;;10.50;99.90;;;;;;5051162;28;20673;-75
2023/03/18 02:09:57;;;;;;;0.60;0.60;;;10.50;99.90;;;;;;5052406;28;20489;-75
2023/03/18 02:12:28;;;;;;;0.60;0.60;;;10.60;99.90;;;;;;5048074;28;20044;-75
2023/03/18 02:14:55;;;;;;;0.60;0.60;;;10.50;99.90;;;;;;5055648;28;20126;-75
2023/03/18 02:17:28;;;;;;;0.60;0.60;;;10.60;99.90;;;;;;5056715;28;20055;-75
2023/03/18 02:20:18;;;;;;;0.60;0.60;;;10.60;99.90;;;;;;5038344;28;20044;-75
2023/03/18 02:22:56;;;;;;;0.50;0.50;;;10.50;99.90;;;;;;5039556;28;20048;-75
2023/03/18 02:26:02;;;;;;;0.60;0.60;;;10.50;99.90;;;;;;5060559;28;20037;-75
2023/03/18 02:28:30;;;;;;;0.60;0.60;;;10.30;99.90;;;;;;5059968;28;20516;-75
2023/03/18 02:30:59;;;;;;;0.50;0.50;;;10.20;99.90;;;;;;5037741;28;20103;-75
2023/03/18 02:33:33;;;;;;;0.60;0.60;;;10.30;99.90;;;;;;5055163;28;20497;-75
2023/03/18 02:36:08;;;;;;;0.60;0.60;;;10.30;99.90;;;;;;5061538;28;20036;-75
2023/03/18 02:38:34;;;;;;;0.60;0.60;;;10.30;99.90;;;;;;5056486;28;20530;-75
2023/03/18 02:41:00;;;;;;;0.60;0.60;;;10.30;99.90;;;;;;5040644;28;20052;-75
2023/03/18 02:43:27;;;;;;;0.60;0.60;;;10.30;99.90;;;;;;5043840;28;20109;-75
2023/03/18 02:45:56;;;;;;;0.60;0.60;;;10.40;99.90;;;;;;5041868;28;20566;-75
2023/03/18 02:48:27;;;;;;;0.50;0.50;;;10.30;99.90;;;;;;5058454;28;20882;-75
2023/03/18 02:50:54;;;;;;;0.60;0.60;;;10.30;99.90;;;;;;5042889;28;20044;-75
2023/03/18 02:53:20;;;;;;;0.60;0.60;;;10.30;99.90;;;;;;5058895;28;20127;-75
2023/03/18 02:55:46;;;;;;;0.55;0.55;;;10.20;99.90;;;;;;5062446;28;20126;-75
2023/03/18 02:58:11;;;;;;;0.60;0.60;;;10.10;99.90;;;;;;5061223;28;20044;-75
2023/03/18 03:00:38;;;;;;;0.60;0.60;;;10.10;99.90;;;;;;5054670;28;21038;-75
2023/03/18 03:03:04;;;;;;;0.52;0.52;;;9.90;99.90;;;;;;5059351;28;20131;-75
2023/03/18 03:05:30;;;;;;;0.50;0.50;;;10.00;99.90;;;;;;5061150;28;20054;-75
2023/03/18 03:07:55;;;;;;;0.60;0.60;;;10.00;99.90;;;;;;5063818;28;20067;-75
2023/03/18 03:10:21;;;;;;;0.50;0.50;;;10.00;99.90;;;;;;5045454;28;20048;-75
2023/03/18 03:12:47;;;;;;;0.50;0.50;;;10.00;99.90;;;;;;5065197;28;20397;-75
2023/03/18 03:15:13;;;;;;;0.50;0.50;;;10.00;99.90;;;;;;5065930;28;20044;-75
2023/03/18 03:17:40;;;;;;;0.50;0.50;;;10.00;99.90;;;;;;5068030;28;20055;-75
2023/03/18 03:20:07;;;;;;;0.60;0.60;;;9.90;99.90;;;;;;5062939;28;20044;-75
2023/03/18 03:22:34;;;;;;;0.60;0.60;;;10.00;99.90;;;;;;5069821;28;20479;-75
2023/03/18 03:25:00;;;;;;;0.60;0.60;;;10.00;99.90;;;;;;5068149;28;20044;-75
2023/03/18 03:27:27;;;;;;;0.60;0.60;;;10.10;99.90;;;;;;5068392;28;20085;-75
2023/03/18 03:29:53;;;;;;;0.60;0.60;;;10.20;99.90;;;;;;5046600;28;20293;-75
2023/03/18 03:32:19;;;;;;;0.60;0.60;;;10.20;99.90;;;;;;5065227;28;20048;-74
2023/03/18 03:34:46;;;;;;;0.60;0.60;;;10.30;99.90;;;;;;5065356;28;20074;-75
2023/03/18 03:37:12;;;;;;;0.50;0.50;;;10.30;99.90;;;;;;5067369;28;20745;-74
2023/03/18 03:39:39;;;;;;;0.60;0.60;;;10.30;99.90;;;;;;5046768;28;20051;-75
2023/03/18 03:42:05;;;;;;;0.60;0.60;;;10.30;99.90;;;;;;5059721;28;20048;-75
2023/03/18 03:44:30;;;;;;;0.60;0.60;;;10.30;99.90;;;;;;5064407;28;20067;-75
2023/03/18 03:46:56;;;;;;;0.60;0.60;;;10.30;99.90;;;;;;5065026;28;20457;-75
2023/03/18 03:49:22;;;;;;;0.60;0.60;;;10.20;99.90;;;;;;5063218;28;20055;-75
2023/03/18 03:51:48;;;;;;;0.60;0.60;;;10.20;99.90;;;;;;5046588;28;20044;-75
2023/03/18 03:54:14;;;;;;;0.60;0.60;;;10.20;99.90;;;;;;5065121;28;20064;-75
2023/03/18 03:56:41;;;;;;;0.60;0.60;;;10.10;99.90;;;;;;5067332;28;20102;-75
2023/03/18 03:59:07;;;;;;;0.50;0.50;;;10.10;99.90;;;;;;5049736;28;20054;-75
2023/03/18 04:01:33;;;;;;;0.52;0.52;;;10.00;99.90;;;;;;5063333;28;20967;-75
2023/03/18 04:04:01;;;;;;;0.60;0.60;;;9.90;99.90;;;;;;5066074;28;20048;-75
2023/03/18 04:06:27;;;;;;;0.50;0.50;;;9.80;99.90;;;;;;5065175;28;20043;-75
2023/03/18 04:08:53;;;;;;;0.60;0.60;;;9.70;99.90;;;;;;5051435;28;20051;-75
2023/03/18 04:11:20;;;;;;;0.50;0.50;;;9.70;99.90;;;;;;5061972;28;20048;-75
2023/03/18 04:13:46;;;;;;;0.60;0.60;;;9.70;99.90;;;;;;5048918;28;20059;-75
2023/03/18 04:16:13;;;;;;;0.60;0.60;;;9.70;99.90;;;;;;5067698;28;20040;-75
2023/03/18 04:18:39;;;;;;;0.60;0.60;;;9.70;99.90;;;;;;5049323;28;20488;-75
2023/03/18 04:21:05;;;;;;;0.50;0.50;;;9.80;99.90;;;;;;5045756;28;20052;-75
2023/03/18 04:23:32;;;;;;;0.50;0.50;;;9.80;99.90;;;;;;5066919;28;20093;-75
2023/03/18 04:25:58;;;;;;;0.50;0.50;;;9.80;99.90;;;;;;5064300;28;20565;-75
2023/03/18 04:28:24;;;;;;;0.60;0.60;;;9.80;99.90;;;;;;5063889;28;20072;-75
2023/03/18 04:30:50;;;;;;;0.50;0.50;;;9.80;99.90;;;;;;5027970;28;20124;-75
2023/03/18 04:33:18;;;;;;;0.60;0.60;;;9.80;99.90;;;;;;5064571;28;20044;-75
2023/03/18 04:35:44;;;;;;;0.57;0.57;;;9.80;99.90;;;;;;5063322;28;20055;-75
2023/03/18 04:38:10;;;;;;;0.60;0.60;;;9.80;99.90;;;;;;5063401;28;20050;-75
2023/03/18 04:40:36;;;;;;;0.60;0.60;;;9.90;99.90;;;;;;5063232;28;20032;-75
2023/03/18 04:43:02;;;;;;;0.60;0.60;;;9.80;99.90;;;;;;5065026;28;20036;-75
2023/03/18 04:45:29;;;;;;;0.60;0.60;;;9.80;99.90;;;;;;5067826;28;20063;-75
2023/03/18 04:47:55;;;;;;;0.60;0.60;;;9.80;99.90;;;;;;5067330;28;20044;-75
2023/03/18 04:50:20;;;;;;;0.60;0.60;;;9.80;99.90;;;;;;5062944;28;20217;-75
2023/03/18 04:52:47;;;;;;;0.60;0.60;;;9.90;99.90;;;;;;5055242;28;20397;-75
2023/03/18 04:55:15;;;;;;;0.60;0.60;;;9.90;99.90;;;;;;5045849;28;20044;-75
2023/03/18 04:57:41;;;;;;;0.60;0.60;;;9.90;99.90;;;;;;5064384;28;20044;-75
2023/03/18 05:00:12;;;;;;;0.60;0.60;;;10.00;99.90;;;;;;5044551;28;20673;-75
2023/03/18 05:02:39;;;;;;;0.60;0.60;;;10.00;99.90;;;;;;5064270;28;20043;-74
2023/03/18 05:05:05;;;;;;;0.65;0.65;;;10.00;99.90;;;;;;5045992;28;20044;-75
2023/03/18 05:07:30;;;;;;;0.60;0.60;;;10.00;99.90;;;;;;5046572;28;20086;-75
2023/03/18 05:09:56;;;;;;;0.60;0.60;;;10.10;99.90;;;;;;5060414;28;20132;-75
2023/03/18 05:12:24;;;;;;;0.60;0.60;;;10.10;99.90;;;;;;5061336;28;20440;-75
2023/03/18 05:14:50;;;;;;;0.68;0.68;;;10.20;99.90;;;;;;5065275;28;20733;-75
2023/03/18 05:17:16;;;;;;;0.70;0.70;;;10.20;99.90;;;;;;5057732;28;20094;-75
2023/03/18 05:19:46;;;;;;;0.70;0.70;;;10.10;99.90;;;;;;5071452;28;20556;-75
2023/03/18 05:22:14;;;;;;;0.70;0.70;;;10.20;99.90;;;;;;5073873;28;20054;-75
2023/03/18 05:24:40;;;;;;;0.70;0.70;;;10.20;99.90;;;;;;5073378;28;20519;-75
2023/03/18 05:27:06;;;;;;;0.70;0.70;;;10.20;99.90;;;;;;5076906;28;20137;-75
2023/03/18 05:29:32;;;;;;;0.73;0.73;;;10.20;99.90;;;;;;5077556;28;20044;-75
2023/03/18 05:31:58;;;;;;;0.80;0.80;;;10.20;99.90;;;;;;5075607;28;20047;-75
2023/03/18 05:34:25;;;;;;;0.70;0.70;;;10.10;99.90;;;;;;5077016;28;20048;-75
2023/03/18 05:36:51;;;;;;;0.70;0.70;;;10.10;99.90;;;;;;5075646;28;20082;-75
2023/03/18 05:39:16;;;;;;;0.70;0.70;;;10.10;99.90;;;;;;5075196;28;20128;-75
2023/03/18 05:41:42;;;;;;;0.70;0.70;;;10.10;99.90;;;;;;5071488;28;20671;-75
2023/03/18 05:44:08;;;;;;;0.70;0.70;;;10.10;99.90;;;;;;5075202;28;20509;-75
2023/03/18 05:46:34;;;;;;;0.70;0.70;;;10.00;99.90;;;;;;5073668;28;20414;-75
2023/03/18 05:49:00;;;;;;;0.70;0.70;;;10.10;99.90;;;;;;5077730;28;20043;-75
2023/03/18 05:51:26;;;;;;;0.70;0.70;;;10.10;99.90;;;;;;5068185;28;20105;-75
2023/03/18 05:53:52;;;;;;;0.70;0.70;;;10.10;99.90;;;;;;5077243;28;20584;-75
2023/03/18 05:56:18;;;;;;;0.70;0.70;;;10.10;99.90;;;;;;5055084;28;20456;-76
2023/03/18 05:58:44;;;;;;;0.70;0.70;;;10.00;99.90;;;;;;5075927;28;20052;-73
2023/03/18 06:01:10;;;;;;;0.70;0.70;;;10.10;99.90;;;;;;5072586;28;20130;-75
2023/03/18 06:03:36;;;;;;;0.70;0.70;;;10.00;99.90;;;;;;5071422;28;20043;-75
2023/03/18 06:06:02;;;;;;;0.73;0.73;;;10.00;99.90;;;;;;5075048;28;20028;-75
2023/03/18 06:08:28;;;;;;;0.70;0.70;;;10.00;99.90;;;;;;5055058;28;20657;-75
2023/03/18 06:10:54;;;;;;;0.80;0.80;;;10.10;99.90;;;;;;5069434;28;20154;-76
2023/03/18 06:13:20;;;;;;;0.70;0.70;;;10.10;99.90;;;;;;5076184;28;20117;-75
2023/03/18 06:15:46;;;;;;;0.70;0.70;;;10.20;99.90;;;;;;5073796;28;20047;-75
2023/03/18 06:18:13;;;;;;;0.80;0.80;;;10.20;99.90;;;;;;5073424;28;20051;-75
2023/03/18 06:20:40;;;;;;;0.70;0.70;;;10.20;99.90;;;;;;5052713;28;20544;-75
2023/03/18 06:23:06;;;;;;;0.70;0.70;;;10.30;99.90;;;;;;5057054;28;20059;-75
2023/03/18 06:25:31;;;;;;;0.70;0.70;;;10.30;99.90;;;;;;5073684;28;20036;-75
2023/03/18 06:27:57;;;;;;;0.70;0.70;;;10.30;99.90;;;;;;5077406;28;20044;-75
2023/03/18 06:30:23;;;;;;;0.80;0.80;;;10.30;99.90;;;;;;5074355;28;20036;-75
2023/03/18 06:32:48;;;;;;;0.80;0.80;;;10.30;99.90;;;;;;5071598;28;20101;-75
2023/03/18 06:35:15;;;;;;;0.80;0.80;;;10.40;99.90;;;;;;5071776;28;20036;-75
2023/03/18 06:37:42;;;;;;;0.73;0.73;;;10.30;99.90;;;;;;5076893;28;20036;-74
2023/03/18 06:40:09;;;;;;;0.70;0.70;;;10.40;99.90;;;;;;5075925;28;20047;-75
2023/03/18 06:42:35;;;;;;;0.80;0.80;;;10.40;99.90;;;;;;5071223;28;20055;-75
2023/03/18 06:45:01;;;;;;;0.80;0.80;;;10.50;99.90;;;;;;5079350;28;20044;-75
2023/03/18 06:47:27;;;;;;;0.80;0.80;;;10.50;99.90;;;;;;5077418;28;20469;-73
2023/03/18 06:49:53;;;;;;;0.80;0.80;;;10.60;99.90;;;;;;5080082;28;20413;-75
2023/03/18 06:52:19;;;;;;;0.80;0.80;;;10.70;99.90;;;;;;5082042;28;20048;-74
2023/03/18 06:54:45;;;;;;;0.80;0.80;;;10.80;99.90;;;;;;5081821;28;20066;-75
2023/03/18 06:57:11;;;;;;;0.80;0.80;;;10.80;99.90;;;;;;5081853;28;20624;-75
2023/03/18 06:59:38;;;;;;;0.80;0.80;;;10.80;99.90;;;;;;5062423;28;20048;-75
2023/03/18 07:02:04;;;;;;;0.80;0.80;;;10.80;99.90;;;;;;5072394;28;20047;-75
2023/03/18 07:04:32;;;;;;;0.90;0.90;;;10.80;99.90;;;;;;5079279;28;20046;-75
2023/03/18 07:06:59;;;;;;;0.90;0.90;;;10.90;99.90;;;;;;5060554;28;20066;-75
2023/03/18 07:09:25;;;;;;;0.90;0.90;;;10.90;99.90;;;;;;5042098;28;20086;-75
2023/03/18 07:11:52;;;;;;;0.90;0.90;;;10.90;99.90;;;;;;5079536;28;20102;-74
2023/03/18 07:14:18;;;;;;;0.90;0.90;;;10.90;99.90;;;;;;5077894;28;20074;-74
2023/03/18 07:16:45;;;;;;;1.00;1.00;;;11.00;99.90;;;;;;5041477;28;20060;-75
2023/03/18 07:19:11;;;;;;;0.95;0.95;;;11.10;99.90;;;;;;5072857;28;20519;-76
2023/03/18 07:21:38;;;;;;;0.95;0.95;;;11.10;99.90;;;;;;5074706;28;20040;-75
2023/03/18 07:24:04;;;;;;;1.00;1.00;;;11.00;99.90;;;;;;5079464;28;20040;-75
2023/03/18 07:26:30;;;;;;;1.00;1.00;;;11.10;99.90;;;;;;5079623;28;20409;-75
2023/03/18 07:28:56;;;;;;;1.00;1.00;;;11.00;99.90;;;;;;5064147;28;20055;-75
2023/03/18 07:31:22;;;;;;;1.00;1.00;;;11.00;99.90;;;;;;5073784;28;20048;-75
2023/03/18 07:33:48;;;;;;;1.10;1.10;;;11.00;99.90;;;;;;5078209;28;20048;-75
2023/03/18 07:36:14;;;;;;;1.05;1.05;;;11.10;99.90;;;;;;5082183;28;20111;-75
2023/03/18 07:38:40;;;;;;;1.00;1.00;;;11.00;99.90;;;;;;5079567;28;20176;-75
2023/03/18 07:41:06;;;;;;;1.10;1.10;;;11.10;99.90;;;;;;5077191;28;20189;-75
2023/03/18 07:43:32;;;;;;;1.05;1.05;;;11.10;99.90;;;;;;5075923;28;20081;-75
2023/03/18 07:45:58;;;;;;;1.10;1.10;;;11.10;99.90;;;;;;5080258;28;20048;-75
2023/03/18 07:48:24;;;;;;;1.10;1.10;;;11.10;99.90;;;;;;5080894;28;20047;-76
2023/03/18 07:50:50;;;;;;;1.00;1.00;;;11.20;99.90;;;;;;5045649;28;20386;-76
2023/03/18 07:53:15;;;;;;;1.08;1.08;;;11.20;99.90;;;;;;5082452;28;20095;-76
2023/03/18 07:55:41;;;;;;;1.08;1.08;;;11.30;99.90;;;;;;5080274;28;20059;-76
2023/03/18 07:58:07;;;;;;;1.10;1.10;;;11.40;99.90;;;;;;5083739;28;20063;-76
2023/03/18 08:00:34;;;;;;;1.10;1.10;;;11.50;99.90;;;;;;5080086;28;20127;-76
2023/03/18 08:03:00;;;;;;;1.20;1.20;;;11.70;99.90;;;;;;5072808;28;20818;-76
2023/03/18 08:05:26;;;;;;;1.20;1.20;;;11.70;99.90;;;;;;5060757;28;20041;-76
2023/03/18 08:07:53;;;;;;;1.02;1.02;;;11.70;99.90;;;;;;5070615;28;20404;-76
2023/03/18 08:10:19;;;;;;;1.15;1.15;;;11.70;99.90;;;;;;5049966;28;20053;-76
2023/03/18 08:12:45;;;;;;;1.15;1.15;;;11.80;99.90;;;;;;5069410;28;20052;-75
2023/03/18 08:15:11;;;;;;;1.30;1.30;;;11.80;99.90;;;;;;5049381;28;20056;-75
2023/03/18 08:17:38;;;;;;;1.20;1.20;;;11.80;99.90;;;;;;5060316;28;20066;-76
2023/03/18 08:20:05;;;;;;;1.23;1.23;;;11.80;99.90;;;;;;5073483;28;20048;-76
2023/03/18 08:22:31;;;;;;;1.27;1.27;;;11.90;99.90;;;;;;5077295;28;20458;-75
2023/03/18 08:24:57;;;;;;;1.23;1.23;;;12.10;99.90;;;;;;5078245;28;20040;-76
2023/03/18 08:27:23;;;;;;;1.23;1.23;;;12.10;99.90;;;;;;5074413;28;20622;-77
2023/03/18 08:29:49;;;;;;;1.20;1.20;;;12.30;99.90;;;;;;5071910;28;20130;-77
2023/03/18 08:32:15;;;;;;;1.27;1.27;;;12.50;99.90;;;;;;5073540;28;20122;-76
2023/03/18 08:34:42;;;;;;;1.27;1.27;;;12.60;99.90;;;;;;5077003;28;20492;-76
2023/03/18 08:37:08;;;;;;;1.33;1.33;;;13.10;99.90;;;;;;5073666;28;20075;-76
2023/03/18 08:39:34;;;;;;;1.30;1.30;;;13.60;99.90;;;;;;5072532;28;20036;-76
2023/03/18 08:42:03;;;;;;;1.30;1.30;;;13.70;99.90;;;;;;5072790;28;20059;-76
2023/03/18 08:44:29;;;;;;;1.23;1.23;;;13.50;99.90;;;;;;5058348;28;20060;-76
2023/03/18 08:46:56;;;;;;;1.35;1.33;;;13.70;99.90;;;;;;5075902;28;20654;-76
2023/03/18 08:49:23;;;;;;;1.27;1.27;;;13.60;99.90;;;;;;5070352;28;20099;-76
2023/03/18 08:51:49;;;;;;;1.27;1.27;;;13.80;99.90;;;;;;5076468;28;20498;-75
2023/03/18 08:54:15;;;;;;;1.27;1.27;;;14.20;99.90;;;;;;5074480;28;20471;-74
2023/03/18 08:56:41;;;;;;;1.30;1.30;;;14.50;99.90;;;;;;5076445;28;20036;-76
2023/03/18 08:59:07;;;;;;;1.27;1.27;;;14.30;99.90;;;;;;5070688;28;20048;-75
2023/03/18 09:01:33;;;;;;;1.30;1.30;;;14.20;99.90;;;;;;5060989;28;20164;-76
2023/03/18 09:03:59;;;;;;;1.35;1.33;;;14.20;99.90;;;;;;5038707;28;20047;-76
2023/03/18 09:06:26;;;;;;;1.27;1.27;;;13.90;99.90;;;;;;5036512;28;20048;-76
2023/03/18 09:08:52;;;;;;;1.30;1.30;;;13.80;99.90;;;;;;5062473;28;21250;-76
2023/03/18 09:11:18;;;;;;;1.27;1.27;;;13.70;99.90;;;;;;5066943;28;20390;-75
2023/03/18 09:13:44;;;;;;;1.20;1.20;;;14.40;99.90;;;;;;5056395;28;20142;-76
2023/03/18 09:16:09;;;;;;;1.20;1.20;;;14.90;99.90;;;;;;5076975;28;20083;-76
2023/03/18 09:18:36;;;;;;;1.15;1.15;;;14.80;99.90;;;;;;5060329;28;20127;-75
2023/03/18 09:21:03;;;;;;;1.23;1.23;;;15.00;99.90;;;;;;5072929;28;20071;-75
2023/03/18 09:23:30;;;;;;;1.27;1.27;;;14.60;99.90;;;;;;5075297;28;20036;-75
2023/03/18 09:25:57;;;;;;;1.23;1.23;;;15.10;99.90;;;;;;5065321;28;20040;-75
2023/03/18 09:28:22;;;;;;;1.15;1.15;;;15.40;99.90;;;;;;5055849;28;20536;-76
2023/03/18 09:30:49;;;;;;;1.23;1.23;;;15.80;99.90;;;;;;5072285;28;20079;-75
2023/03/18 09:33:15;;;;;;;1.35;1.33;;;16.20;99.90;;;;;;5079914;28;20036;-75
2023/03/18 09:35:41;;;;;;;1.35;1.33;;;16.40;99.90;;;;;;5047955;28;20053;-75
2023/03/18 09:38:09;;;;;;;1.33;1.33;;;16.50;99.90;;;;;;5058293;28;20054;-76
2023/03/18 09:40:44;;;;;;;1.25;1.25;;;16.30;99.90;;;;;;5070482;28;20048;-76
2023/03/18 09:43:45;;;;;;;1.33;1.30;;;16.20;99.90;;;;;;5065347;28;20066;-75
2023/03/18 09:46:49;;;;;;;1.25;1.25;;;16.20;99.90;;;;;;5060716;28;20048;-76
2023/03/18 09:49:23;;;;;;;1.25;1.25;;;16.50;99.90;;;;;;5067625;28;20037;-76
2023/03/18 09:51:52;;;;;;;1.25;1.25;;;16.00;99.90;;;;;;5067495;28;20056;-75
2023/03/18 09:54:53;;;;;;;1.27;1.27;;;15.90;99.90;;;;;;5073083;28;20048;-76
2023/03/18 09:57:43;;;;;;;1.17;1.17;;;15.80;99.90;;;;;;5074639;28;20048;-75
2023/03/18 10:00:38;;;;;;;1.23;1.23;;;15.50;99.90;;;;;;5052085;28;20070;-75
2023/03/18 10:03:23;;;;;;;1.25;1.25;;;15.20;99.90;;;;;;5043038;28;20055;-76
2023/03/18 10:05:55;;;;;;;1.25;1.25;;;15.40;99.90;;;;;;5057426;28;20703;-75
2023/03/18 10:08:30;;;;;;;1.42;1.38;;;15.40;99.90;;;;;;5054078;28;20448;-75
2023/03/18 10:11:02;;;;;;;2.20;2.10;;;15.20;99.90;;;;;;5043042;28;20072;-75
2023/03/18 10:13:36;;;;;;;1.25;1.25;;;15.30;99.90;;;;;;5053736;28;20044;-76
2023/03/18 10:16:03;;;;;;;;;;;15.10;99.90;;;;;;5056010;28;20036;-76
2023/03/18 10:18:38;;;;;;;1.30;1.30;;;15.00;99.90;;;;;;5039954;28;20026;-75
2023/03/18 10:21:04;;;;;;;1.35;1.27;;;14.90;99.90;;;;;;5051620;28;20130;-76
2023/03/18 10:24:00;;;;;;;1.25;1.25;;;14.70;99.90;;;;;;5061065;28;20352;-75
2023/03/18 10:26:58;;;;;;;1.25;1.25;;;14.80;99.90;;;;;;5056229;28;20089;-75
2023/03/18 10:29:52;;;;;;;1.55;1.45;;;15.60;99.90;;;;;;5055060;28;20571;-76
2023/03/18 10:32:27;;;;;;;1.45;1.38;;;16.30;99.90;;;;;;5060661;28;20039;-75
2023/03/18 10:35:25;;;;;;;1.50;1.40;;;16.00;99.90;;;;;;5062652;28;20063;-75
2023/03/18 10:38:18;;;;;;;1.38;1.35;;;16.10;99.90;;;;;;5018853;28;20052;-77
2023/03/18 10:40:46;;;;;;;1.30;1.30;;;16.30;99.90;;;;;;5050275;28;20088;-75
2023/03/18 10:43:28;;;;;;;1.33;1.33;;;16.90;99.90;;;;;;5056670;28;20081;-76
2023/03/18 10:46:14;;;;;;;1.30;1.27;;;16.70;99.90;;;;;;5055575;28;20048;-76
2023/03/18 10:49:16;;;;;;;1.35;1.33;;;17.00;99.90;;;;;;5044769;28;20052;-76
2023/03/18 10:51:57;;;;;;;1.52;1.45;;;17.20;99.90;;;;;;5051521;28;20043;-76
2023/03/18 10:54:31;;;;;;;1.38;1.33;;;17.20;99.90;;;;;;5056445;28;20099;-76
2023/03/18 10:56:57;;;;;;;1.23;1.23;;;17.10;99.90;;;;;;5036878;28;20112;-76
2023/03/18 10:59:24;;;;;;;1.25;1.25;;;17.40;99.90;;;;;;5058483;28;20596;-76
2023/03/18 11:02:00;;;;;;;1.20;1.20;;;17.10;99.90;;;;;;5043754;28;20047;-75
2023/03/18 11:04:27;;;;;;;1.27;1.27;;;17.10;99.90;;;;;;5063211;28;20796;-76
2023/03/18 11:07:02;;;;;;;1.10;1.10;;;16.90;99.90;;;;;;5045200;28;20391;-74
2023/03/18 11:09:41;;;;;;;1.17;1.17;;;16.50;99.90;;;;;;5059470;28;20545;-77
2023/03/18 11:12:15;;;;;;;1.08;1.08;;;16.40;99.90;;;;;;5058555;28;21017;-76
2023/03/18 11:14:47;;;;;;;1.20;1.20;;;16.80;99.90;;;;;;5056118;28;20051;-76
2023/03/18 11:17:19;;;;;;;1.15;1.15;;;17.40;99.90;;;;;;5061408;28;20068;-75
2023/03/18 11:19:47;;;;;;;1.20;1.20;;;17.80;99.90;;;;;;5056646;28;20055;-75
2023/03/18 11:22:27;;;;;;;1.17;1.17;;;17.60;99.90;;;;;;5060276;28;20133;-75
2023/03/18 11:25:15;;;;;;;1.17;1.17;;;17.50;99.90;;;;;;5062801;28;20064;-75
2023/03/18 11:27:47;;;;;;;1.15;1.15;;;17.70;99.90;;;;;;5049381;28;20113;-75
2023/03/18 11:30:27;;;;;;;1.20;1.20;;;18.50;99.90;;;;;;5054767;28;20036;-75
2023/03/18 11:33:02;;;;;;;1.25;1.25;;;18.50;99.90;;;;;;5041598;28;20044;-75
2023/03/18 11:35:44;;;;;;;1.10;1.10;;;18.60;99.90;;;;;;5057944;28;20048;-76
2023/03/18 11:38:30;;;;;;;1.15;1.15;;;19.00;99.90;;;;;;5050041;28;20067;-76
2023/03/18 11:41:16;;;;;;;1.25;1.25;;;18.00;99.90;;;;;;5067391;28;20416;-75
2023/03/18 11:44:06;;;;;;;1.25;1.25;;;18.40;99.90;;;;;;5060311;28;20049;-75
2023/03/18 11:46:46;;;;;;;1.27;1.27;;;18.30;99.90;;;;;;5044996;28;20048;-76
2023/03/18 11:49:15;;;;;;;1.23;1.23;;;18.40;99.90;;;;;;5075393;28;20680;-76
2023/03/18 11:51:41;;;;;;;1.15;1.15;;;18.30;99.90;;;;;;5074242;28;20067;-76
2023/03/18 11:54:44;;;;;;;1.10;1.10;;;18.30;99.90;;;;;;5057335;28;20699;-75
2023/03/18 11:57:29;;;;;;;1.13;1.13;;;18.30;99.90;;;;;;5052145;28;20048;-75
2023/03/18 12:00:19;;;;;;;1.10;1.10;;;18.40;99.90;;;;;;5051792;28;20043;-76
2023/03/18 12:03:23;;;;;;;1.02;1.02;;;18.10;99.90;;;;;;5054605;28;20055;-75
2023/03/18 12:06:09;;;;;;;1.08;1.08;;;18.20;99.90;;;;;;5054663;28;20283;-76
2023/03/18 12:09:06;;;;;;;1.05;1.05;;;18.70;99.90;;;;;;5076035;28;20470;-76
2023/03/18 12:11:58;;;;;;;1.05;1.05;;;18.70;99.90;;;;;;5075321;28;20072;-76
2023/03/18 12:14:32;;;;;;;0.98;0.98;;;18.10;99.90;;;;;;5048265;28;20056;-76
2023/03/18 12:17:25;;;;;;;1.00;1.00;;;18.20;99.90;;;;;;5064343;28;20505;-76
2023/03/18 12:20:14;;;;;;;0.90;0.90;;;18.00;99.90;;;;;;5059177;28;20056;-76
2023/03/18 12:23:17;;;;;;;0.95;0.95;;;17.60;99.90;;;;;;5075029;28;21103;-76
2023/03/18 12:25:55;;;;;;;0.88;0.88;;;17.50;99.90;;;;;;5057093;28;20052;-76
2023/03/18 12:28:42;;;;;;;0.85;0.85;;;17.40;99.90;;;;;;5076101;28;20071;-76
2023/03/18 12:31:34;;;;;;;0.98;0.98;;;17.50;99.90;;;;;;5076023;28;20481;-77
2023/03/18 12:34:01;;;;;;;0.95;0.95;;;17.90;99.90;;;;;;5060169;28;20043;-75
2023/03/18 12:36:52;;;;;;;1.05;1.05;;;18.70;99.90;;;;;;5060900;28;20105;-76
2023/03/18 12:39:44;;;;;;;1.05;1.05;;;18.90;99.90;;;;;;5071633;28;20045;-77
2023/03/18 12:42:16;;;;;;;0.98;0.98;;;18.60;99.90;;;;;;5076646;28;20390;-76
2023/03/18 12:45:08;;;;;;;0.98;0.98;;;18.30;99.90;;;;;;5057366;28;20753;-76
2023/03/18 12:47:49;;;;;;;0.98;0.98;;;18.60;99.90;;;;;;5077746;28;20129;-76
2023/03/18 12:50:25;;;;;;;0.95;0.95;;;18.20;99.90;;;;;;5076095;28;20032;-76
2023/03/18 12:53:08;;;;;;;0.90;0.90;;;18.20;99.90;;;;;;5078844;28;20078;-76
2023/03/18 12:55:40;;;;;;;0.90;0.90;;;18.10;99.90;;;;;;5078101;28;20048;-76
2023/03/18 12:58:15;;;;;;;0.93;0.93;;;19.20;99.90;;;;;;5074931;28;20505;-77
2023/03/18 13:00:53;;;;;;;0.88;0.88;;;19.70;99.90;;;;;;5075506;28;20554;-76
2023/03/18 13:03:40;;;;;;;0.82;0.82;;;19.80;99.90;;;;;;5080020;28;20678;-76
2023/03/18 13:06:21;;;;;;;0.85;0.85;;;20.10;99.90;;;;;;5078516;28;20119;-76